Time;durP1;ratioP1;P1;durP2;ratioP2;P2;SDS_P1;SDS_P2;PMS_P1;PMS_P2;Temp;Humidity;BMP_temperature;BMP_pressure;BME280_temperature;BME280_humidity;BME280_pressure;Samples;Min_cycle;Max_cycle;Signal;HPM_P1;HPM_P2
2023/04/30 00:02:36;;;;;;;;;;;10.70;80.00;;;;;;8384400;28;19960;-71
2023/04/30 00:06:38;;;;;;;;;;;10.60;81.30;;;;;;8391463;28;19931;-71
2023/04/30 00:10:40;;;;;;;;;;;10.50;81.30;;;;;;8394394;28;19929;-71
2023/04/30 00:14:41;;;;;;;;;;;10.40;81.00;;;;;;8393385;28;20387;-71
2023/04/30 00:18:43;;;;;;;;;;;10.30;80.90;;;;;;8395587;28;19925;-71
2023/04/30 00:22:44;;;;;;;;;;;10.30;81.40;;;;;;8409006;28;19924;-71
2023/04/30 00:26:46;;;;;;;;;;;10.20;80.80;;;;;;8404036;28;20292;-71
2023/04/30 00:30:48;;;;;;;;;;;10.10;80.30;;;;;;8404908;28;19924;-71
2023/04/30 00:34:49;;;;;;;;;;;10.00;79.90;;;;;;8401314;28;20295;-71
2023/04/30 00:38:51;;;;;;;;;;;9.90;80.80;;;;;;8385405;28;19924;-71
2023/04/30 00:42:54;;;;;;;;;;;9.90;81.00;;;;;;8367824;28;19933;-71
2023/04/30 01:02:05;;;;;;;;;;;9.60;81.80;;;;;;8380349;28;19966;-71
2023/04/30 01:06:07;;;;;;;;;;;9.50;86.30;;;;;;8392300;28;19987;-71
2023/04/30 01:10:08;;;;;;;;;;;9.30;84.70;;;;;;8390164;28;19928;-71
2023/04/30 01:14:22;;;;;;;;;;;9.20;83.50;;;;;;8399600;28;19924;-71
2023/04/30 01:18:42;;;;;;;;;;;9.20;83.40;;;;;;8388814;28;19928;-71
2023/04/30 01:22:46;;;;;;;;;;;9.20;83.40;;;;;;8376902;28;19971;-71
2023/04/30 01:26:54;;;;;;;;;;;9.10;82.70;;;;;;8382814;28;20288;-71
2023/04/30 01:41:09;;;;;;;;;;;8.80;83.10;;;;;;8386243;28;20078;-71
2023/04/30 01:45:29;;;;;;;;;;;8.80;82.80;;;;;;8391712;28;19956;-71
2023/04/30 01:49:50;;;;;;;;;;;8.70;82.90;;;;;;8377600;28;19977;-71
2023/04/30 01:53:54;;;;;;;;;;;8.70;82.70;;;;;;8396358;28;19925;-71
2023/04/30 01:58:00;;;;;;;;;;;8.70;83.70;;;;;;8403997;28;19932;-71
2023/04/30 02:02:02;;;;;;;;;;;8.60;82.80;;;;;;8402473;28;19931;-71
2023/04/30 02:06:03;;;;;;;;;;;8.60;82.80;;;;;;8380444;28;20360;-71
2023/04/30 02:10:06;;;;;;;;;;;8.50;82.00;;;;;;8391371;28;19947;-71
2023/04/30 02:14:07;;;;;;;;;;;8.50;82.30;;;;;;8397506;28;19929;-72
2023/04/30 02:18:09;;;;;;;;;;;8.40;82.20;;;;;;8394833;28;20291;-71
2023/04/30 02:22:11;;;;;;;;;;;8.40;82.70;;;;;;8402597;28;19969;-71
2023/04/30 02:26:12;;;;;;;;;;;8.30;82.40;;;;;;8403162;28;19964;-71
2023/04/30 02:30:14;;;;;;;;;;;8.30;82.10;;;;;;8404779;28;19928;-71
2023/04/30 02:34:16;;;;;;;;;;;8.30;83.00;;;;;;8400244;28;19925;-71
2023/04/30 02:43:21;;;;;;;;;;;8.20;82.50;;;;;;8388221;28;19926;-70
2023/04/30 02:47:22;;;;;;;;;;;8.10;82.40;;;;;;8393884;28;19924;-71
2023/04/30 03:01:31;;;;;;;;;;;7.90;81.60;;;;;;8390405;28;19939;-70
2023/04/30 03:05:33;;;;;;;;;;;7.80;82.30;;;;;;8379018;28;19924;-71
2023/04/30 03:09:35;;;;;;;;;;;7.80;82.20;;;;;;8383302;28;19968;-70
2023/04/30 03:13:37;;;;;;;;;;;7.70;82.50;;;;;;8389963;28;19968;-71
2023/04/30 03:17:38;;;;;;;;;;;7.70;82.80;;;;;;8396883;28;19932;-71
2023/04/30 03:21:40;;;;;;;;;;;7.70;83.00;;;;;;8385791;28;19928;-71
2023/04/30 03:25:42;;;;;;;;;;;7.70;82.80;;;;;;8378639;28;20004;-71
2023/04/30 03:29:43;;;;;;;;;;;7.70;82.80;;;;;;8396829;28;20372;-71
2023/04/30 03:33:45;;;;;;;;;;;7.70;82.80;;;;;;8379942;28;19928;-70
2023/04/30 03:37:46;;;;;;;;;;;7.60;82.00;;;;;;8400133;28;19951;-70
2023/04/30 03:41:48;;;;;;;;;;;7.60;82.50;;;;;;8390339;28;19947;-70
2023/04/30 03:45:49;;;;;;;;;;;7.60;82.60;;;;;;8403111;28;20301;-71
2023/04/30 03:49:53;;;;;;;;;;;7.60;83.00;;;;;;8392308;28;19925;-71
2023/04/30 03:53:56;;;;;;;;;;;7.60;82.80;;;;;;8387787;28;19971;-70
2023/04/30 03:57:57;;;;;;;;;;;7.50;83.00;;;;;;8393531;28;19969;-70
2023/04/30 04:02:00;;;;;;;;;;;7.50;82.60;;;;;;8374412;28;19925;-71
2023/04/30 04:06:02;;;;;;;;;;;7.60;83.50;;;;;;8375120;28;19928;-70
2023/04/30 04:10:04;;;;;;;;;;;7.60;83.10;;;;;;8413026;28;19927;-70
2023/04/30 04:24:32;;;;;;;;;;;7.50;84.70;;;;;;8394259;28;19959;-71
2023/04/30 04:28:35;;;;;;;;;;;7.50;85.70;;;;;;8412592;28;19932;-70
2023/04/30 04:32:47;;;;;;;;;;;7.50;83.70;;;;;;8394673;28;19925;-70
2023/04/30 04:36:48;;;;;;;;;;;7.50;86.20;;;;;;8398506;28;19925;-71
2023/04/30 04:40:52;;;;;;;;;;;7.50;86.50;;;;;;8383715;28;20301;-70
2023/04/30 04:44:53;;;;;;;;;;;7.40;86.00;;;;;;8385893;28;19932;-70
2023/04/30 04:48:55;;;;;;;;;;;7.40;87.40;;;;;;8391336;28;20039;-70
2023/04/30 04:52:56;;;;;;;;;;;7.40;87.30;;;;;;8384487;28;20898;-71
2023/04/30 04:56:58;;;;;;;;;;;7.50;86.60;;;;;;8373161;28;19928;-70
2023/04/30 05:06:03;;;;;;;;;;;7.60;88.30;;;;;;8379054;28;19923;-70
2023/04/30 05:10:06;;;;;;;;;;;7.90;89.00;;;;;;8378555;28;20019;-71
2023/04/30 05:14:07;;;;;;;;;;;8.00;88.00;;;;;;8374944;28;19972;-70
2023/04/30 05:18:09;;;;;;;;;;;8.10;89.20;;;;;;8357817;28;19933;-70
2023/04/30 05:22:11;;;;;;;;;;;8.30;90.90;;;;;;8388586;28;19936;-71
2023/04/30 05:26:13;;;;;;;;;;;8.40;90.40;;;;;;8392754;28;19924;-70
2023/04/30 05:30:14;;;;;;;;;;;8.60;90.30;;;;;;8395693;28;19924;-71
2023/04/30 05:54:30;;;;;;;;;;;9.30;92.50;;;;;;8398112;28;19924;-71
2023/04/30 05:58:32;;;;;;;;;;;9.50;92.60;;;;;;8385958;28;19936;-70
2023/04/30 06:02:34;;;;;;;;;;;9.70;92.80;;;;;;8400253;28;19940;-71
2023/04/30 06:06:36;;;;;;;;;;;9.80;93.40;;;;;;8400955;28;19928;-71
2023/04/30 06:10:38;;;;;;;;;;;9.90;92.70;;;;;;8382258;28;19928;-70
2023/04/30 06:14:44;;;;;;;;;;;10.10;93.10;;;;;;8386420;28;19931;-71
2023/04/30 06:18:45;;;;;;;;;;;10.20;92.30;;;;;;8415331;28;19924;-71
2023/04/30 06:22:47;;;;;;;;;;;10.40;94.10;;;;;;8405423;28;19931;-71
2023/04/30 06:26:49;;;;;;;;;;;10.50;94.10;;;;;;8378133;28;19924;-70
2023/04/30 06:30:51;;;;;;;;;;;10.60;94.20;;;;;;8390390;28;19933;-71
2023/04/30 06:34:54;;;;;;;;;;;10.70;95.30;;;;;;8363331;28;19963;-71
2023/04/30 06:38:55;;;;;;;;;;;10.80;94.50;;;;;;8407499;28;20533;-71
2023/04/30 06:42:57;;;;;;;;;;;11.00;94.40;;;;;;8398224;28;19925;-70
2023/04/30 06:46:59;;;;;;;;;;;11.10;95.60;;;;;;8401609;28;19982;-71
2023/04/30 07:01:06;;;;;;;;;;;11.60;94.80;;;;;;8383499;28;19923;-70
2023/04/30 07:05:08;;;;;;;;;;;11.80;95.40;;;;;;8405421;28;19924;-70
2023/04/30 07:09:10;;;;;;;;;;;12.00;95.90;;;;;;8385714;28;19924;-72
2023/04/30 07:13:13;;;;;;;;;;;12.10;96.10;;;;;;8380281;28;20344;-71
2023/04/30 07:17:15;;;;;;;;;;;12.30;96.10;;;;;;8396439;28;19931;-71
2023/04/30 07:21:16;;;;;;;;;;;12.40;94.30;;;;;;8410079;28;19924;-70
2023/04/30 07:25:18;;;;;;;;;;;12.60;96.10;;;;;;8400108;28;19936;-71
2023/04/30 07:29:20;;;;;;;;;;;12.80;96.00;;;;;;8389571;28;20029;-70
2023/04/30 07:33:21;;;;;;;;;;;12.90;95.30;;;;;;8396488;28;20288;-71
2023/04/30 07:37:23;;;;;;;;;;;13.10;96.00;;;;;;8403745;28;19924;-71
2023/04/30 07:41:25;;;;;;;;;;;13.20;96.20;;;;;;8400961;28;20402;-71
2023/04/30 07:45:26;;;;;;;;;;;13.30;95.40;;;;;;8395750;28;19925;-70
2023/04/30 07:49:28;;;;;;;;;;;13.40;95.00;;;;;;8408574;28;19929;-71
2023/04/30 07:53:30;;;;;;;;;;;13.50;95.20;;;;;;8413254;28;19924;-71
2023/04/30 07:57:31;;;;;;;;;;;13.50;94.60;;;;;;8397155;28;20379;-70
2023/04/30 08:01:33;;;;;;;;;;;13.60;96.70;;;;;;8392670;28;19931;-71
2023/04/30 08:05:35;;;;;;;;;;;13.70;94.80;;;;;;8399000;28;20376;-71
2023/04/30 08:09:36;;;;;;;;;;;13.80;95.30;;;;;;8400721;28;20372;-71
2023/04/30 08:13:38;;;;;;;;;;;13.80;96.30;;;;;;8381661;28;19928;-71
2023/04/30 08:27:46;;;;;;;;;;;14.20;96.00;;;;;;8411749;28;19962;-71
2023/04/30 08:31:48;;;;;;;;;;;14.40;96.90;;;;;;8416995;28;19930;-71
2023/04/30 08:35:49;;;;;;;;;;;14.50;96.00;;;;;;8396827;28;19931;-71
2023/04/30 08:39:51;;;;;;;;;;;14.70;98.90;;;;;;8407089;28;19936;-71
2023/04/30 08:43:54;;;;;;;;;;;14.70;97.80;;;;;;8411664;28;19924;-71
2023/04/30 08:47:58;;;;;;;;;;;14.80;97.30;;;;;;8402592;28;20027;-71
2023/04/30 08:52:00;;;;;;;;;;;15.00;98.40;;;;;;8406206;28;19999;-71
2023/04/30 08:56:02;;;;;;;;;;;15.20;97.20;;;;;;8414023;28;19924;-71
2023/04/30 09:00:05;;;;;;;;;;;15.40;96.90;;;;;;8387894;28;19924;-71
2023/04/30 09:04:06;;;;;;;;;;;15.50;97.30;;;;;;8410664;28;19928;-71
2023/04/30 09:08:08;;;;;;;;;;;15.70;96.70;;;;;;8407865;28;20399;-71
2023/04/30 09:12:14;;;;;;;;;;;15.80;97.60;;;;;;8404775;28;20015;-71
2023/04/30 09:16:19;;;;;;;;;;;15.80;98.00;;;;;;8377091;28;19935;-71
2023/04/30 09:20:22;;;;;;;;;;;16.00;97.90;;;;;;8394417;28;19928;-71
2023/04/30 09:24:24;;;;;;;;;;;16.10;97.90;;;;;;8394217;28;20299;-71
2023/04/30 09:28:27;;;;;;;;;;;16.20;97.90;;;;;;8400752;28;19960;-71
2023/04/30 09:32:29;;;;;;;;;;;16.40;97.40;;;;;;8384488;28;20241;-71
2023/04/30 09:36:31;;;;;;;;;;;16.50;97.70;;;;;;8414536;28;19928;-71
2023/04/30 10:00:49;;;;;;;;;;;17.20;96.70;;;;;;8385920;28;19927;-71
2023/04/30 10:04:56;;;;;;;;;;;17.30;97.20;;;;;;8383408;28;19999;-71
2023/04/30 10:08:58;;;;;;;;;;;17.40;98.70;;;;;;8410957;28;19937;-71
2023/04/30 10:13:02;;;;;;;;;;;17.40;97.90;;;;;;8397702;28;19974;-71
2023/04/30 10:17:10;;;;;;;;;;;17.50;97.10;;;;;;8385601;28;19928;-71
2023/04/30 10:21:13;;;;;;;;;;;17.80;98.50;;;;;;8410549;28;19928;-71
2023/04/30 10:25:15;;;;;;;;;;;18.00;97.50;;;;;;8399899;28;20040;-71
2023/04/30 10:29:17;;;;;;;;;;;18.10;96.90;;;;;;8393051;28;19925;-71
2023/04/30 10:33:25;;;;;;;;;;;18.30;97.20;;;;;;8381154;28;19935;-71
2023/04/30 10:37:33;;;;;;;;;;;18.70;98.10;;;;;;8380901;28;20388;-71
2023/04/30 10:41:35;;;;;;;;;;;19.00;97.80;;;;;;8377601;28;20299;-71
2023/04/30 10:45:37;;;;;;;;;;;19.40;98.40;;;;;;8402112;28;19925;-71
2023/04/30 10:49:46;;;;;;;;;;;19.60;99.90;;;;;;8417862;28;20000;-71
2023/04/30 10:53:49;;;;;;;;;;;19.80;99.90;;;;;;8391196;28;19976;-70
2023/04/30 10:57:54;;;;;;;;;;;20.00;99.90;;;;;;8389062;28;19930;-71
2023/04/30 11:02:00;;;;;;;;;;;20.40;99.90;;;;;;8397193;28;19931;-71
2023/04/30 11:06:12;;;;;;;;;;;21.00;99.90;;;;;;8385568;28;20063;-71
2023/04/30 11:10:14;;;;;;;;;;;21.40;99.90;;;;;;8409578;28;20367;-71
2023/04/30 11:14:19;;;;;;;;;;;21.90;99.90;;;;;;8370216;28;20295;-71
2023/04/30 11:18:25;;;;;;;;;;;22.40;99.90;;;;;;8399717;28;20290;-71
2023/04/30 11:22:36;;;;;;;;;;;22.70;99.90;;;;;;8405425;28;19924;-71
2023/04/30 11:27:01;;;;;;;;;;;22.90;99.90;;;;;;8417326;28;19962;-71
2023/04/30 11:31:03;;;;;;;;;;;23.20;99.90;;;;;;8395200;28;19932;-71
2023/04/30 11:35:05;;;;;;;;;;;23.40;99.90;;;;;;8414738;28;19973;-71
2023/04/30 11:39:08;;;;;;;;;;;23.10;99.90;;;;;;8412538;28;19931;-71
2023/04/30 11:43:29;;;;;;;;;;;22.50;99.90;;;;;;8359263;28;19936;-71
2023/04/30 11:47:42;;;;;;;;;;;22.30;99.90;;;;;;8366390;28;22470;-71
2023/04/30 11:51:47;;;;;;;;;;;22.70;99.90;;;;;;8360504;28;19931;-71
2023/04/30 11:55:48;;;;;;;;;;;23.40;99.90;;;;;;8347165;28;19925;-71
2023/04/30 11:59:50;;;;;;;;;;;23.90;99.90;;;;;;8365326;28;19931;-71
2023/04/30 12:03:54;;;;;;;;;;;24.50;99.90;;;;;;8362499;28;20011;-71
2023/04/30 12:07:58;;;;;;;;;;;24.40;99.90;;;;;;8363164;28;19933;-71
2023/04/30 12:12:01;;;;;;;;;;;23.80;99.90;;;;;;8362962;28;20443;-71
2023/04/30 12:16:03;;;;;;;;;;;23.20;99.90;;;;;;8358341;28;19929;-71
2023/04/30 12:20:05;;;;;;;;;;;22.90;99.90;;;;;;8360348;28;19932;-71
2023/04/30 12:24:07;;;;;;;;;;;22.60;99.90;;;;;;8345987;28;19948;-71
2023/04/30 12:28:09;;;;;;;;;;;22.30;99.90;;;;;;8374806;28;20277;-71
2023/04/30 12:32:14;;;;;;;;;;;22.10;99.90;;;;;;8356712;28;19935;-71
2023/04/30 12:36:16;;;;;;;;;;;21.70;99.90;;;;;;8373982;28;19940;-71
2023/04/30 12:40:19;;;;;;;;;;;21.50;99.90;;;;;;8356479;28;19975;-71
2023/04/30 12:44:22;;;;;;;;;;;21.40;99.90;;;;;;8362942;28;19936;-71
2023/04/30 12:48:24;;;;;;;;;;;21.30;99.90;;;;;;8359510;28;20023;-71
2023/04/30 12:52:25;;;;;;;;;;;21.30;99.90;;;;;;8345965;28;20335;-71
2023/04/30 12:56:27;;;;;;;;;;;21.40;99.90;;;;;;8342821;28;19928;-70
2023/04/30 13:00:29;;;;;;;;;;;21.30;99.90;;;;;;8351509;28;19943;-71
2023/04/30 13:04:31;;;;;;;;;;;21.20;99.90;;;;;;8358594;28;19939;-71
2023/04/30 13:08:32;;;;;;;;;;;21.10;99.90;;;;;;8358901;28;20400;-71
2023/04/30 13:12:46;;;;;;;;;;;21.00;98.70;;;;;;8369908;28;19924;-71
2023/04/30 13:16:48;;;;;;;;;;;20.80;99.00;;;;;;8352626;28;20353;-71
2023/04/30 13:20:50;;;;;;;;;;;20.80;98.00;;;;;;8365286;28;19964;-71
2023/04/30 13:24:52;;;;;;;;;;;21.00;99.40;;;;;;8366860;28;20388;-71
2023/04/30 13:28:54;;;;;;;;;;;21.10;97.80;;;;;;8359812;28;19934;-71
2023/04/30 13:32:56;;;;;;;;;;;21.10;97.40;;;;;;8378225;28;19932;-71
2023/04/30 13:36:57;;;;;;;;;;;21.00;98.40;;;;;;8368739;28;19929;-71
2023/04/30 13:40:59;;;;;;;;;;;21.10;94.80;;;;;;8353139;28;19929;-71
2023/04/30 13:45:01;;;;;;;;;;;21.40;98.60;;;;;;8361829;28;19928;-71
2023/04/30 13:49:02;;;;;;;;;;;21.70;98.50;;;;;;8373452;28;19929;-71
2023/04/30 13:53:04;;;;;;;;;;;22.00;99.60;;;;;;8351519;28;19928;-71
2023/04/30 13:57:06;;;;;;;;;;;22.10;98.40;;;;;;8364875;28;20364;-70
2023/04/30 14:01:09;;;;;;;;;;;22.10;98.50;;;;;;8356149;28;20341;-71
2023/04/30 14:05:10;;;;;;;;;;;21.90;97.50;;;;;;8357358;28;19925;-71
2023/04/30 14:09:12;;;;;;;;;;;21.80;96.80;;;;;;8355705;28;19975;-71
2023/04/30 14:13:14;;;;;;;;;;;21.70;98.10;;;;;;8356148;28;19980;-71
2023/04/30 14:17:16;;;;;;;;;;;22.30;99.80;;;;;;8358290;28;19970;-71
2023/04/30 14:21:17;;;;;;;;;;;23.50;99.90;;;;;;8373853;28;19964;-71
2023/04/30 14:25:19;;;;;;;;;;;24.00;93.70;;;;;;8356665;28;19933;-71
2023/04/30 14:29:21;;;;;;;;;;;23.60;97.80;;;;;;8354695;28;20019;-71
2023/04/30 14:33:22;;;;;;;;;;;23.20;97.60;;;;;;8357467;28;19929;-71
2023/04/30 14:37:24;;;;;;;;;;;22.80;94.90;;;;;;8357139;28;19924;-71
2023/04/30 14:41:26;;;;;;;;;;;22.40;95.30;;;;;;8356622;28;19935;-71
2023/04/30 14:45:28;;;;;;;;;;;22.50;96.50;;;;;;8358249;28;20315;-71
2023/04/30 14:49:29;;;;;;;;;;;22.70;97.00;;;;;;8356631;28;19932;-71
2023/04/30 14:53:31;;;;;;;;;;;22.80;96.40;;;;;;8360193;28;20369;-71
2023/04/30 14:57:33;;;;;;;;;;;22.60;93.70;;;;;;8358989;28;20505;-71
2023/04/30 15:01:35;;;;;;;;;;;22.40;94.80;;;;;;8352393;28;20051;-71
2023/04/30 15:05:37;;;;;;;;;;;22.30;95.60;;;;;;8366079;28;20656;-71
2023/04/30 15:09:38;;;;;;;;;;;22.30;96.70;;;;;;8345559;28;20039;-71
2023/04/30 15:13:40;;;;;;;;;;;22.30;96.30;;;;;;8367209;28;19925;-71
2023/04/30 15:17:42;;;;;;;;;;;23.00;97.60;;;;;;8366994;28;19971;-71
2023/04/30 15:21:43;;;;;;;;;;;24.20;99.90;;;;;;8359561;28;19929;-71
2023/04/30 15:25:47;;;;;;;;;;;25.40;99.90;;;;;;8364204;28;19948;-71
2023/04/30 15:29:49;;;;;;;;;;;26.30;99.90;;;;;;8361436;28;19925;-71
2023/04/30 15:38:53;;;;;;;;;;;27.30;96.50;;;;;;8362283;28;19999;-71
2023/04/30 15:42:55;;;;;;;;;;;26.40;98.50;;;;;;8359910;28;19932;-71
2023/04/30 15:46:57;;;;;;;;;;;25.50;96.50;;;;;;8360589;28;20283;-71
2023/04/30 15:50:58;;;;;;;;;;;24.80;94.60;;;;;;8376192;28;19987;-71
2023/04/30 15:55:00;;;;;;;;;;;24.20;95.10;;;;;;8367791;28;19929;-71
2023/04/30 15:59:02;;;;;;;;;;;24.50;95.90;;;;;;8368570;28;19971;-71
2023/04/30 16:03:03;;;;;;;;;;;25.50;98.40;;;;;;8344227;28;20040;-71
2023/04/30 16:07:05;;;;;;;;;;;26.80;99.90;;;;;;8360441;28;20372;-71
2023/04/30 16:11:07;;;;;;;;;;;27.90;99.90;;;;;;8361712;28;19935;-71
2023/04/30 16:15:09;;;;;;;;;;;28.60;99.90;;;;;;8359333;28;19925;-71
2023/04/30 16:19:11;;;;;;;;;;;29.00;99.90;;;;;;8359812;28;19933;-71
2023/04/30 16:23:13;;;;;;;;;;;29.20;99.90;;;;;;8375558;28;19932;-71
2023/04/30 16:32:24;;;;;;;;;;;28.40;97.70;;;;;;8357534;28;19972;-71
2023/04/30 16:36:26;;;;;;;;;;;27.20;95.80;;;;;;8375949;28;20385;-71
2023/04/30 16:40:29;;;;;;;;;;;26.50;96.70;;;;;;8355636;28;19925;-71
2023/04/30 16:44:31;;;;;;;;;;;25.80;95.90;;;;;;8350464;28;20342;-71
2023/04/30 16:48:33;;;;;;;;;;;25.70;95.20;;;;;;8375304;28;19924;-71
2023/04/30 16:52:34;;;;;;;;;;;25.90;95.70;;;;;;8362365;28;19951;-71
2023/04/30 16:56:36;;;;;;;;;;;26.00;94.00;;;;;;8359919;28;19959;-71
2023/04/30 17:00:37;;;;;;;;;;;25.90;93.80;;;;;;8367037;28;20564;-71
2023/04/30 17:04:39;;;;;;;;;;;26.10;91.00;;;;;;8346586;28;20049;-71
2023/04/30 17:08:42;;;;;;;;;;;26.30;95.30;;;;;;8365255;28;19933;-71
2023/04/30 17:12:43;;;;;;;;;;;26.40;91.70;;;;;;8359690;28;19933;-71
2023/04/30 17:16:45;;;;;;;;;;;26.40;93.40;;;;;;8359370;28;19925;-71
2023/04/30 17:20:48;;;;;;;;;;;26.60;92.60;;;;;;8360372;28;19960;-71
2023/04/30 17:24:50;;;;;;;;;;;26.40;92.60;;;;;;8373550;28;20451;-71
2023/04/30 17:28:51;;;;;;;;;;;26.10;92.70;;;;;;8358077;28;20036;-71
2023/04/30 17:32:53;;;;;;;;;;;25.70;90.00;;;;;;8377604;28;19928;-71
2023/04/30 17:36:55;;;;;;;;;;;25.20;88.80;;;;;;8360139;28;19930;-71
2023/04/30 17:40:57;;;;;;;;;;;25.00;90.10;;;;;;8379339;28;19925;-71
2023/04/30 17:44:59;;;;;;;;;;;25.10;90.10;;;;;;8380210;28;19925;-71
2023/04/30 17:49:02;;;;;;;;;;;25.00;91.00;;;;;;8366355;28;19932;-71
2023/04/30 17:53:03;;;;;;;;;;;25.00;90.00;;;;;;8360706;28;19939;-71
2023/04/30 17:57:05;;;;;;;;;;;24.70;88.50;;;;;;8385273;28;19971;-71
2023/04/30 18:01:07;;;;;;;;;;;24.40;86.60;;;;;;8374415;28;20020;-71
2023/04/30 18:05:10;;;;;;;;;;;24.00;85.70;;;;;;8360969;28;19929;-71
2023/04/30 18:09:12;;;;;;;;;;;23.50;83.80;;;;;;8360046;28;19986;-71
2023/04/30 18:13:14;;;;;;;;;;;23.00;84.60;;;;;;8359419;28;20284;-71
2023/04/30 18:17:16;;;;;;;;;;;22.70;85.00;;;;;;8357984;28;19939;-71
2023/04/30 18:21:17;;;;;;;;;;;22.30;84.00;;;;;;8365143;28;20369;-71
2023/04/30 18:25:19;;;;;;;;;;;22.00;83.80;;;;;;8346632;28;19928;-71
2023/04/30 18:29:22;;;;;;;;;;;21.80;83.60;;;;;;8359122;28;20658;-71
2023/04/30 18:33:24;;;;;;;;;;;21.50;83.50;;;;;;8365090;28;19948;-71
2023/04/30 18:37:25;;;;;;;;;;;21.30;83.50;;;;;;8374664;28;19928;-71
2023/04/30 18:41:27;;;;;;;;;;;21.10;83.40;;;;;;8361165;28;19927;-71
2023/04/30 18:45:28;;;;;;;;;;;20.90;83.30;;;;;;8364998;28;20394;-71
2023/04/30 18:49:30;;;;;;;;;;;20.60;83.20;;;;;;8357778;28;19925;-71
2023/04/30 18:53:33;;;;;;;;;;;20.40;82.80;;;;;;8348722;28;19924;-71
2023/04/30 18:57:35;;;;;;;;;;;20.20;83.30;;;;;;8367428;28;19968;-71
2023/04/30 19:01:36;;;;;;;;;;;20.10;82.80;;;;;;8366898;28;19932;-71
2023/04/30 19:05:38;;;;;;;;;;;19.90;82.50;;;;;;8364937;28;19936;-71
2023/04/30 19:09:40;;;;;;;;;;;19.60;83.00;;;;;;8360645;28;19925;-71
2023/04/30 19:13:41;;;;;;;;;;;19.40;82.80;;;;;;8363698;28;19946;-71
2023/04/30 19:17:43;;;;;;;;;;;19.10;82.70;;;;;;8379873;28;20696;-71
2023/04/30 19:21:45;;;;;;;;;;;18.90;82.60;;;;;;8363151;28;19979;-71
2023/04/30 19:25:47;;;;;;;;;;;18.70;82.70;;;;;;8356821;28;19939;-71
2023/04/30 19:29:50;;;;;;;;;;;18.50;82.40;;;;;;8342668;28;19925;-71
2023/04/30 19:33:51;;;;;;;;;;;18.30;82.00;;;;;;8362749;28;20315;-71
2023/04/30 19:37:53;;;;;;;;;;;18.10;82.50;;;;;;8366151;28;19977;-71
2023/04/30 19:41:55;;;;;;;;;;;18.00;82.50;;;;;;8345325;28;19929;-71
2023/04/30 19:45:57;;;;;;;;;;;17.80;82.10;;;;;;8360466;28;20355;-71
2023/04/30 19:49:59;;;;;;;;;;;17.60;82.10;;;;;;8363660;28;20396;-71
2023/04/30 19:54:01;;;;;;;;;;;17.40;82.20;;;;;;8370261;28;19928;-71
2023/04/30 19:58:05;;;;;;;;;;;17.20;81.60;;;;;;8366202;28;19940;-71
2023/04/30 20:02:07;;;;;;;;;;;17.00;82.20;;;;;;8365309;28;19929;-71
2023/04/30 20:06:09;;;;;;;;;;;16.80;82.90;;;;;;8362818;28;20403;-71
2023/04/30 20:10:11;;;;;;;;;;;16.70;81.80;;;;;;8379947;28;19928;-71
2023/04/30 20:14:13;;;;;;;;;;;16.50;82.60;;;;;;8383839;28;19924;-71
2023/04/30 20:18:14;;;;;;;;;;;16.40;82.50;;;;;;8362881;28;19928;-71
2023/04/30 20:22:16;;;;;;;;;;;16.30;82.10;;;;;;8375988;28;20285;-70
2023/04/30 20:26:19;;;;;;;;;;;16.20;82.60;;;;;;8363102;28;19932;-71
2023/04/30 20:30:21;;;;;;;;;;;16.20;82.20;;;;;;8366047;28;19931;-71
2023/04/30 20:34:23;;;;;;;;;;;16.10;83.70;;;;;;8370552;28;19936;-71
2023/04/30 20:38:25;;;;;;;;;;;16.00;82.00;;;;;;8364898;28;20411;-71
2023/04/30 20:42:26;;;;;;;;;;;15.80;82.10;;;;;;8363777;28;19925;-71
2023/04/30 20:46:29;;;;;;;;;;;15.70;82.40;;;;;;8364712;28;19954;-71
2023/04/30 20:50:31;;;;;;;;;;;15.60;82.70;;;;;;8363810;28;20367;-71
2023/04/30 20:54:33;;;;;;;;;;;15.60;82.30;;;;;;8362598;28;19939;-71
2023/04/30 20:58:34;;;;;;;;;;;15.50;82.50;;;;;;8357993;28;20031;-71
2023/04/30 21:02:36;;;;;;;;;;;15.40;83.00;;;;;;8382596;28;19967;-71
2023/04/30 21:06:38;;;;;;;;;;;15.40;83.10;;;;;;8388320;28;19927;-71
2023/04/30 21:10:39;;;;;;;;;;;15.30;83.10;;;;;;8414407;28;19940;-71
2023/04/30 21:14:41;;;;;;;;;;;15.20;82.60;;;;;;8405786;28;20285;-71
2023/04/30 21:18:47;;;;;;;;;;;15.10;84.20;;;;;;8413142;28;19932;-70
2023/04/30 21:22:51;;;;;;;;;;;15.00;84.10;;;;;;8399879;28;19985;-71
2023/04/30 21:26:53;;;;;;;;;;;15.00;83.60;;;;;;8397736;28;19924;-71
2023/04/30 21:30:54;;;;;;;;;;;14.90;82.50;;;;;;8386685;28;19971;-71
2023/04/30 21:34:56;;;;;;;;;;;14.80;82.30;;;;;;8386416;28;19947;-71
2023/04/30 21:38:58;;;;;;;;;;;14.70;83.00;;;;;;8410607;28;19924;-71
2023/04/30 21:43:00;;;;;;;;;;;14.70;83.00;;;;;;8400227;28;19924;-71
2023/04/30 21:47:02;;;;;;;;;;;14.60;83.20;;;;;;8420115;28;19924;-71
2023/04/30 21:51:11;;;;;;;;;;;14.50;83.80;;;;;;8419366;28;20410;-71
2023/04/30 21:55:13;;;;;;;;;;;14.40;83.30;;;;;;8395331;28;19924;-71
2023/04/30 21:59:14;;;;;;;;;;;14.30;84.10;;;;;;8401698;28;19928;-71
2023/04/30 22:03:16;;;;;;;;;;;14.20;83.50;;;;;;8395519;28;19979;-71
2023/04/30 22:07:18;;;;;;;;;;;14.10;83.90;;;;;;8402553;28;19978;-71
2023/04/30 22:11:20;;;;;;;;;;;14.00;82.90;;;;;;8382807;28;19928;-71
2023/04/30 22:15:21;;;;;;;;;;;13.90;83.10;;;;;;8402893;28;19924;-71
2023/04/30 22:19:23;;;;;;;;;;;13.90;82.80;;;;;;8410346;28;19924;-71
2023/04/30 22:23:25;;;;;;;;;;;13.90;82.60;;;;;;8425650;28;19933;-71
2023/04/30 22:27:26;;;;;;;;;;;13.70;83.00;;;;;;8419258;28;19968;-71
2023/04/30 22:31:28;;;;;;;;;;;13.70;83.00;;;;;;8432641;28;19939;-71
2023/04/30 22:35:31;;;;;;;;;;;13.60;83.30;;;;;;8408138;28;19931;-71
2023/04/30 22:39:33;;;;;;;;;;;13.50;82.60;;;;;;8382531;28;19924;-70
2023/04/30 22:43:34;;;;;;;;;;;13.40;83.70;;;;;;8412785;28;19932;-71
2023/04/30 22:47:36;;;;;;;;;;;13.30;83.60;;;;;;8388475;28;20387;-71
2023/04/30 22:51:38;;;;;;;;;;;13.20;83.00;;;;;;8381844;28;19927;-71
2023/04/30 22:55:40;;;;;;;;;;;13.20;83.40;;;;;;8412417;28;20451;-71
2023/04/30 22:59:41;;;;;;;;;;;13.20;82.70;;;;;;8426558;28;19925;-71
2023/04/30 23:03:43;;;;;;;;;;;13.10;83.30;;;;;;8422269;28;19948;-71
2023/04/30 23:07:48;;;;;;;;;;;13.00;82.80;;;;;;8401536;28;19928;-71
2023/04/30 23:11:50;;;;;;;;;;;12.90;82.30;;;;;;8411154;28;19924;-71
2023/04/30 23:15:55;;;;;;;;;;;12.80;83.10;;;;;;8418239;28;19924;-71
2023/04/30 23:19:57;;;;;;;;;;;12.70;83.10;;;;;;8390560;28;20281;-71
2023/04/30 23:24:00;;;;;;;;;;;12.70;82.50;;;;;;8404966;28;20384;-71
2023/04/30 23:28:03;;;;;;;;;;;12.60;82.90;;;;;;8413336;28;19979;-71
2023/04/30 23:32:04;;;;;;;;;;;12.60;82.40;;;;;;8390151;28;20403;-71
2023/04/30 23:36:06;;;;;;;;;;;12.50;82.20;;;;;;8413589;28;19931;-70
2023/04/30 23:40:08;;;;;;;;;;;12.50;82.60;;;;;;8403498;28;19932;-71
2023/04/30 23:44:12;;;;;;;;;;;12.40;81.70;;;;;;8409271;28;20375;-71
2023/04/30 23:48:14;;;;;;;;;;;12.40;81.50;;;;;;8416752;28;19936;-70
2023/04/30 23:52:16;;;;;;;;;;;12.30;82.40;;;;;;8395697;28;19924;-71
2023/04/30 23:56:17;;;;;;;;;;;12.30;82.10;;;;;;8387545;28;19931;-71
